createdAt,value
2023-03-22T00:05:07.056Z,98557.2
2023-03-22T00:10:46.375Z,98551.1
2023-03-22T00:16:22.104Z,98543.1
2023-03-22T00:22:21.940Z,98541.2
2023-03-22T00:27:57.060Z,98530.3
2023-03-22T00:33:34.258Z,98522.3
2023-03-22T00:39:55.188Z,98518.5
2023-03-22T00:45:53.883Z,98500
2023-03-22T00:51:32.922Z,98483.4
2023-03-22T00:57:17.346Z,98473.7
2023-03-22T01:02:52.931Z,98464.3
2023-03-22T01:08:37.365Z,98456.4
2023-03-22T01:14:12.482Z,98445.3
2023-03-22T01:19:47.645Z,98444.3
2023-03-22T01:25:26.383Z,98437.5
2023-03-22T01:31:04.319Z,98424.9
2023-03-22T01:36:40.307Z,98416.6
2023-03-22T01:42:21.151Z,98404.9
2023-03-22T01:48:11.752Z,98399.3
2023-03-22T01:54:11.250Z,98396
2023-03-22T01:59:44.131Z,98395.1
2023-03-22T02:05:26.463Z,98387.8
2023-03-22T02:11:02.272Z,98388
2023-03-22T02:16:40.427Z,98384.3
2023-03-22T02:22:16.571Z,98384.6
2023-03-22T02:27:54.906Z,98387.6
2023-03-22T02:34:16.981Z,98385.6
2023-03-22T02:39:57.541Z,98386.2
2023-03-22T02:45:50.773Z,98382.1
2023-03-22T02:51:27.835Z,98379.2
2023-03-22T02:57:05.566Z,98379.8
2023-03-22T03:02:40.533Z,98375.8
2023-03-22T03:08:15.920Z,98370.3
2023-03-22T03:13:51.966Z,98369.2
2023-03-22T03:19:27.806Z,98370.1
2023-03-22T03:25:32.292Z,98364.6
2023-03-22T03:31:16.361Z,98356.3
2023-03-22T03:36:53.040Z,98347.7
2023-03-22T03:42:28.342Z,98342.1
2023-03-22T03:48:18.581Z,98342.2
2023-03-22T03:54:16.549Z,98345.3
2023-03-22T03:59:49.858Z,98340.3
2023-03-22T04:06:10.818Z,98348.4
2023-03-22T04:11:47.775Z,98341
2023-03-22T04:17:30.966Z,98335
2023-03-22T04:23:10.424Z,98335.9
2023-03-22T04:28:55.615Z,98330.5
2023-03-22T04:34:31.175Z,98325.8
2023-03-22T04:40:06.450Z,98322
2023-03-22T04:45:43.802Z,98319.6
2023-03-22T04:51:24.544Z,98317.3
2023-03-22T04:57:00.708Z,98315.1
2023-03-22T05:02:43.462Z,98323
2023-03-22T05:08:20.900Z,98324.4
2023-03-22T05:13:59.094Z,98320.5
2023-03-22T05:20:14.316Z,98318.2
2023-03-22T05:26:29.184Z,98315
2023-03-22T05:32:14.084Z,98315.7
2023-03-22T05:37:49.331Z,98314.7
2023-03-22T05:43:58.487Z,98312.1
2023-03-22T05:49:35.223Z,98310.9
2023-03-22T05:55:40.223Z,98317.3
2023-03-22T06:01:17.504Z,98320.4
2023-03-22T06:07:07.531Z,98323.7
2023-03-22T06:12:54.546Z,98326.1
2023-03-22T06:18:33.421Z,98330.2
2023-03-22T06:24:08.721Z,98331.6
2023-03-22T06:29:46.947Z,98330.6
2023-03-22T06:35:23.807Z,98334.4
2023-03-22T06:41:11.081Z,98336.6
2023-03-22T06:47:01.688Z,98324.1
2023-03-22T06:52:38.263Z,98319
2023-03-22T06:58:20.643Z,98309.2
2023-03-22T07:04:17.916Z,98307.5
2023-03-22T07:09:57.918Z,98301
2023-03-22T07:16:19.986Z,98298.7
2023-03-22T07:21:59.118Z,98302.4
2023-03-22T07:27:40.437Z,98300.8
2023-03-22T07:34:03.124Z,98301.1
2023-03-22T07:39:38.497Z,98307.1
2023-03-22T07:45:18.180Z,98301.8
2023-03-22T07:50:54.131Z,98310.4
2023-03-22T07:56:29.101Z,98309.7
2023-03-22T08:02:13.427Z,98308.6
2023-03-22T08:07:49.630Z,98308.1
2023-03-22T08:13:30.928Z,98308.4
2023-03-22T08:19:14.095Z,98309.4
2023-03-22T08:24:49.349Z,98311.5
2023-03-22T08:30:38.682Z,98312.1
2023-03-22T08:36:17.861Z,98316.3
2023-03-22T08:42:13.004Z,98316.5
2023-03-22T08:48:05.625Z,98312.4
2023-03-22T08:53:45.373Z,98312.9
2023-03-22T08:59:31.875Z,98308
2023-03-22T09:05:09.717Z,98313.8
2023-03-22T09:11:31.027Z,98308.7
2023-03-22T09:17:14.706Z,98310.4
2023-03-22T09:23:00.117Z,98314.7
2023-03-22T09:28:37.185Z,98322.1
2023-03-22T09:34:13.310Z,98322.9
2023-03-22T09:39:49.252Z,98325.7
2023-03-22T09:45:45.854Z,98327
2023-03-22T09:51:20.990Z,98329.3
2023-03-22T09:57:02.300Z,98330.6
2023-03-22T10:02:47.316Z,98324.5
2023-03-22T10:08:46.986Z,98318.9
2023-03-22T10:14:25.925Z,98317.3
2023-03-22T10:20:10.360Z,98323.2
2023-03-22T10:25:45.568Z,98323
2023-03-22T10:31:22.647Z,98323.6
2023-03-22T10:36:58.576Z,98321
2023-03-22T10:42:33.968Z,98320.8
2023-03-22T10:48:24.693Z,98314
2023-03-22T10:54:30.920Z,98317.3
2023-03-22T11:00:04.243Z,98316.9
2023-03-22T11:05:45.038Z,98311.5
2023-03-22T11:11:28.568Z,98310.9
2023-03-22T11:17:10.774Z,98299.5
2023-03-22T11:23:10.514Z,98293.7
2023-03-22T11:29:48.385Z,98293.3
2023-03-22T11:35:25.700Z,98291.5
2023-03-22T11:41:03.123Z,98290.6
2023-03-22T11:46:48.585Z,98290.3
2023-03-22T11:52:24.053Z,98284.2
2023-03-22T11:58:02.776Z,98284.6
2023-03-22T12:03:40.395Z,98275.8
2023-03-22T12:09:16.881Z,98270.3
2023-03-22T12:14:55.432Z,98274.2
2023-03-22T12:20:32.283Z,98261.4
2023-03-22T12:26:09.053Z,98254.6
2023-03-22T12:32:01.814Z,98255.9
2023-03-22T12:37:37.274Z,98257.6
2023-03-22T12:43:29.565Z,98251.2
2023-03-22T12:49:11.983Z,98247.4
2023-03-22T12:54:48.105Z,98238.9
2023-03-22T13:00:24.361Z,98240.1
2023-03-22T13:06:08.655Z,98239.9
2023-03-22T13:11:44.238Z,98235.1
2023-03-22T13:17:29.588Z,98227.3
2023-03-22T13:23:06.131Z,98222.1
2023-03-22T13:28:44.436Z,98213.6
2023-03-22T13:34:44.577Z,98209.8
2023-03-22T13:40:19.717Z,98202.7
2023-03-22T13:46:02.931Z,98198.1
2023-03-22T13:51:38.657Z,98199.5
2023-03-22T13:57:13.776Z,98201.1
2023-03-22T14:02:54.618Z,98208.6
2023-03-22T14:08:30.882Z,98203.9
2023-03-22T14:14:15.884Z,98206.6
2023-03-22T14:19:56.604Z,98205.8
2023-03-22T14:47:53.324Z,98205.3
2023-03-22T14:53:58.183Z,98202.8
2023-03-22T14:59:31.658Z,98208.9
2023-03-22T15:05:08.488Z,98203.3
2023-03-22T15:11:05.927Z,98203.7
2023-03-22T15:16:41.474Z,98210.7
2023-03-22T15:22:38.628Z,98189.2
2023-03-22T15:28:13.959Z,98207.8
2023-03-22T15:33:57.734Z,98212.6
2023-03-22T15:39:36.910Z,98204.4
2023-03-22T15:45:13.155Z,98207.2
2023-03-22T15:50:48.763Z,98214
2023-03-22T15:56:48.804Z,98214.2
2023-03-22T16:02:22.435Z,98218.5
2023-03-22T16:08:03.926Z,98216.6
2023-03-22T16:13:40.221Z,98216.7
2023-03-22T16:19:30.662Z,98210.1
2023-03-22T16:25:06.918Z,98205.6
2023-03-22T16:30:53.252Z,98207.4
2023-03-22T16:36:42.014Z,98208.8
2023-03-22T16:42:49.421Z,98204.4
2023-03-22T16:48:35.373Z,98209.5
2023-03-22T16:54:10.812Z,98219.2
2023-03-22T16:59:46.256Z,98221.4
2023-03-22T17:05:23.001Z,98221.4
2023-03-22T17:10:58.781Z,98224.6
2023-03-22T17:16:34.841Z,98221.6
2023-03-22T17:22:12.462Z,98224.5
2023-03-22T17:27:48.999Z,98221.8
2023-03-22T17:33:30.051Z,98221.6
2023-03-22T18:02:33.540Z,98229.3
2023-03-22T18:08:30.596Z,98231.1
2023-03-22T18:14:40.950Z,98227.1
2023-03-22T18:20:57.372Z,98214
2023-03-22T18:27:11.312Z,98209.3
2023-03-22T18:33:07.004Z,98209.1
2023-03-22T18:40:54.312Z,98203.7
2023-03-22T18:47:01.622Z,98201
2023-03-22T18:53:18.060Z,98179.9
2023-03-22T18:58:55.752Z,98178.7
2023-03-22T19:04:31.641Z,98182.3
2023-03-22T19:10:07.316Z,98175.3
2023-03-22T19:15:51.213Z,98160.3
2023-03-22T19:22:16.689Z,98158.1
2023-03-22T19:28:16.189Z,98153.9
2023-03-22T19:33:57.437Z,98156.2
2023-03-22T19:39:38.878Z,98147.6
2023-03-22T19:45:14.584Z,98149.2
2023-03-22T19:50:57.439Z,98148
2023-03-22T19:56:39.228Z,98137
2023-03-22T20:02:15.735Z,98134.8
2023-03-22T20:07:51.764Z,98126.7
2023-03-22T20:13:27.218Z,98121.6
2023-03-22T20:19:03.953Z,98124.6
2023-03-22T20:24:39.282Z,98127.6
2023-03-22T20:30:35.513Z,98121
2023-03-22T20:36:27.991Z,98119
2023-03-22T20:42:39.428Z,98115.9
2023-03-22T20:48:17.780Z,98113.8
2023-03-22T20:53:52.950Z,98114.5
2023-03-22T20:59:29.608Z,98110.6
2023-03-22T21:05:43.159Z,98107.7
2023-03-22T21:11:18.671Z,98103.5
2023-03-22T21:16:54.612Z,98106
2023-03-22T21:22:31.162Z,98108.5
2023-03-22T21:28:23.807Z,98118.1
2023-03-22T21:34:08.444Z,98122.8
2023-03-22T21:39:52.572Z,98137.9
2023-03-22T21:45:28.949Z,98142.2
2023-03-22T21:51:11.230Z,98145.6
2023-03-22T21:56:54.323Z,98150.8
2023-03-22T22:03:06.537Z,98153.9
2023-03-22T22:08:51.069Z,98153.1
2023-03-22T22:14:26.796Z,98151.8
2023-03-22T22:20:10.995Z,98150.2
2023-03-22T22:25:48.709Z,98137.3
2023-03-22T22:31:25.789Z,98134.7
2023-03-22T22:37:14.347Z,98125.4
2023-03-22T22:42:50.845Z,98116.6
2023-03-22T22:48:30.930Z,98106.4
2023-03-22T22:54:29.162Z,98098.4
2023-03-22T23:00:03.395Z,98089.6
2023-03-22T23:05:50.284Z,98085.2
2023-03-22T23:11:46.091Z,98073.2
2023-03-22T23:17:22.014Z,98062.4
2023-03-22T23:23:00.272Z,98066.8
2023-03-22T23:28:44.171Z,98073.5
2023-03-22T23:34:21.352Z,98072.7
2023-03-22T23:39:56.804Z,98072
2023-03-22T23:45:33.221Z,98063.6
2023-03-22T23:51:11.508Z,98062
2023-03-22T23:56:53.333Z,98060
